createdAt,value
2023-06-29T00:00:04.641Z,68.97
2023-06-29T00:03:01.041Z,66.95
2023-06-29T00:05:41.043Z,67.25
2023-06-29T00:08:14.739Z,68.18
2023-06-29T00:10:56.648Z,70.10
2023-06-29T00:13:41.723Z,67.20
2023-06-29T00:16:32.578Z,70.03
2023-06-29T00:19:40.436Z,68.43
2023-06-29T00:22:21.883Z,68.88
2023-06-29T00:25:14.566Z,66.68
2023-06-29T00:27:46.502Z,68.13
2023-06-29T00:30:17.402Z,67.60
2023-06-29T00:35:41.502Z,66.13
2023-06-29T00:38:41.049Z,66.50
2023-06-29T00:41:38.551Z,68.32
2023-06-29T00:44:19.139Z,68.35
2023-06-29T00:50:00.218Z,67.95
2023-06-29T00:52:59.468Z,69.10
2023-06-29T00:55:49.160Z,66.78
2023-06-29T00:58:27.667Z,66.00
2023-06-29T01:01:18.260Z,69.00
2023-06-29T01:04:01.326Z,70.55
2023-06-29T01:06:43.495Z,68.35
2023-06-29T01:09:27.632Z,67.20
2023-06-29T01:12:03.152Z,66.60
2023-06-29T01:14:39.064Z,66.18
2023-06-29T01:17:26.679Z,65.50
2023-06-29T01:20:28.606Z,64.63
2023-06-29T01:23:17.428Z,67.40
2023-06-29T01:26:18.430Z,67.47
2023-06-29T01:29:01.602Z,67.90
2023-06-29T01:31:43.113Z,65.90
2023-06-29T01:37:17.460Z,66.10
2023-06-29T01:39:53.329Z,66.28
2023-06-29T01:42:44.350Z,69.85
2023-06-29T01:45:29.100Z,68.32
2023-06-29T01:48:23.404Z,70.10
2023-06-29T01:51:23.487Z,68.07
2023-06-29T01:53:54.423Z,70.32
2023-06-29T01:56:47.613Z,64.30
2023-06-29T01:59:40.260Z,65.60
2023-06-29T02:02:19.355Z,66.03
2023-06-29T02:05:25.656Z,69.53
2023-06-29T02:08:06.135Z,65.80
2023-06-29T02:10:58.434Z,65.72
2023-06-29T02:13:31.239Z,66.72
2023-06-29T02:19:04.655Z,62.70
2023-06-29T02:21:54.153Z,65.50
2023-06-29T02:24:51.080Z,64.20
2023-06-29T02:27:25.207Z,65.05
2023-06-29T02:30:16.827Z,63.33
2023-06-29T02:33:01.831Z,65.28
2023-06-29T02:35:52.439Z,66.72
2023-06-29T02:38:29.882Z,65.18
2023-06-29T02:41:34.812Z,64.22
2023-06-29T02:44:44.768Z,66.40
2023-06-29T02:47:45.221Z,64.25
2023-06-29T02:50:39.312Z,64.55
2023-06-29T02:53:17.356Z,63.65
2023-06-29T02:56:08.201Z,63.78
2023-06-29T02:59:09.436Z,62.53
2023-06-29T03:01:52.150Z,62.35
2023-06-29T03:07:44.998Z,62.42
2023-06-29T03:10:35.150Z,61.05
2023-06-29T03:13:27.045Z,62.80
2023-06-29T03:19:56.459Z,62.53
2023-06-29T03:22:54.156Z,63.03
2023-06-29T03:26:14.712Z,61.33
2023-06-29T03:37:46.546Z,60.60
2023-06-29T03:41:02.631Z,61.17
2023-06-29T03:47:47.272Z,59.10
2023-06-29T03:53:43.290Z,58.08
2023-06-29T03:56:47.096Z,60.25
2023-06-29T04:06:31.741Z,58.95
2023-06-29T04:09:45.515Z,58.05
2023-06-29T04:12:20.292Z,57.05
2023-06-29T04:15:06.996Z,58.40
2023-06-29T04:17:59.022Z,57.97
2023-06-29T04:21:29.850Z,57.60
2023-06-29T04:24:34.161Z,57.72
2023-06-29T04:30:42.691Z,58.17
2023-06-29T04:33:56.680Z,58.85
2023-06-29T04:36:36.010Z,59.53
2023-06-29T04:39:26.989Z,59.05
2023-06-29T04:43:03.202Z,58.85
2023-06-29T04:59:30.685Z,60.42
2023-06-29T05:12:18.544Z,59.75
2023-06-29T05:14:52.341Z,59.85
2023-06-29T05:18:08.199Z,59.85
2023-06-29T05:23:49.701Z,61.10
2023-06-29T05:29:32.353Z,63.05
2023-06-29T05:32:33.519Z,64.47
2023-06-29T05:35:50.057Z,64.40
2023-06-29T05:38:52.624Z,63.30
2023-06-29T05:42:05.046Z,64.38
2023-06-29T05:45:26.148Z,65.75
2023-06-29T05:48:34.025Z,64.47
2023-06-29T05:51:11.845Z,64.80
2023-06-29T05:53:58.373Z,66.72
2023-06-29T05:56:29.695Z,64.72
2023-06-29T05:59:09.124Z,67.03
2023-06-29T06:01:38.780Z,64.63
2023-06-29T06:04:11.689Z,66.88
2023-06-29T06:06:48.652Z,64.60
2023-06-29T06:09:23.830Z,64.57
2023-06-29T06:11:56.149Z,65.90
2023-06-29T06:14:24.610Z,63.90
2023-06-29T06:17:07.360Z,65.38
2023-06-29T06:19:43.245Z,65.35
2023-06-29T06:22:13.333Z,66.97
2023-06-29T06:24:43.371Z,64.88
2023-06-29T06:27:19.781Z,67.25
2023-06-29T06:29:50.541Z,65.35
2023-06-29T06:32:22.730Z,67.03
2023-06-29T06:34:53.462Z,68.55
2023-06-29T06:37:32.088Z,67.32
2023-06-29T06:40:02.048Z,68.22
2023-06-29T06:46:05.958Z,68.72
2023-06-29T06:49:05.173Z,68.40
2023-06-29T06:51:37.243Z,69.13
2023-06-29T06:54:06.565Z,66.00
2023-06-29T06:56:59.292Z,68.40
2023-06-29T06:59:59.369Z,66.85
2023-06-29T07:03:11.653Z,67.85
2023-06-29T07:05:43.677Z,65.22
2023-06-29T07:08:46.064Z,66.35
2023-06-29T07:15:34.499Z,68.20
2023-06-29T07:18:14.082Z,69.60
2023-06-29T07:26:23.551Z,72.47
2023-06-29T07:29:14.514Z,71.05
2023-06-29T07:31:58.795Z,71.15
2023-06-29T07:37:26.774Z,69.40
2023-06-29T07:40:14.203Z,69.97
2023-06-29T07:43:14.049Z,64.97
2023-06-29T07:45:53.687Z,64.18
2023-06-29T07:48:36.203Z,63.67
2023-06-29T07:51:14.641Z,66.60
2023-06-29T07:54:06.775Z,64.75
2023-06-29T07:59:18.260Z,64.28
2023-06-29T08:01:55.780Z,69.55
2023-06-29T08:07:41.660Z,68.13
2023-06-29T08:10:30.699Z,67.72
2023-06-29T08:13:06.097Z,68.15
2023-06-29T08:15:41.150Z,66.88
2023-06-29T08:18:22.789Z,66.97
2023-06-29T08:20:55.441Z,67.32
2023-06-29T08:23:29.243Z,65.38
2023-06-29T08:26:07.775Z,67.03
2023-06-29T08:29:00.664Z,66.65
2023-06-29T08:31:38.800Z,66.28
2023-06-29T08:34:17.200Z,66.45
2023-06-29T08:37:02.080Z,62.90
2023-06-29T08:39:42.597Z,64.55
2023-06-29T08:42:29.475Z,68.32
2023-06-29T08:45:07.697Z,74.53
2023-06-29T08:48:27.925Z,71.15
2023-06-29T08:51:32.214Z,68.63
2023-06-29T08:57:21.159Z,71.07
2023-06-29T08:59:54.094Z,72.78
2023-06-29T09:02:23.563Z,71.38
2023-06-29T09:05:01.621Z,73.07
2023-06-29T09:07:36.595Z,73.93
2023-06-29T09:10:25.600Z,73.05
2023-06-29T09:13:10.084Z,68.88
2023-06-29T09:15:46.892Z,72.22
2023-06-29T09:18:55.819Z,70.65
2023-06-29T09:21:37.360Z,70.00
2023-06-29T09:24:46.407Z,69.68
2023-06-29T09:27:35.385Z,67.13
2023-06-29T09:30:12.457Z,68.50
2023-06-29T09:32:50.849Z,65.95
2023-06-29T09:35:40.857Z,65.15
2023-06-29T09:38:11.706Z,60.25
2023-06-29T09:41:02.814Z,66.38
2023-06-29T09:43:47.857Z,57.83
2023-06-29T09:46:23.431Z,59.35
2023-06-29T09:53:02.609Z,70.90
2023-06-29T09:55:57.178Z,73.43
2023-06-29T10:09:09.542Z,70.15
2023-06-29T10:11:51.826Z,73.35
2023-06-29T10:14:33.581Z,65.80
2023-06-29T10:17:23.538Z,70.25
2023-06-29T10:19:56.573Z,80.35
2023-06-29T10:22:52.828Z,80.22
2023-06-29T10:25:38.605Z,70.00
2023-06-29T10:28:18.541Z,69.45
2023-06-29T10:31:09.623Z,70.60
2023-06-29T10:34:03.033Z,72.82
2023-06-29T10:36:50.457Z,77.18
2023-06-29T10:39:45.534Z,74.82
2023-06-29T10:42:59.410Z,77.25
2023-06-29T10:49:39.692Z,74.28
2023-06-29T10:52:29.370Z,81.13
2023-06-29T10:55:46.708Z,80.95
2023-06-29T10:58:30.282Z,79.97
2023-06-29T11:01:07.544Z,81.22
2023-06-29T11:03:37.493Z,80.75
2023-06-29T11:09:20.600Z,82.80
2023-06-29T11:12:16.999Z,82.93
2023-06-29T11:18:49.970Z,82.93
2023-06-29T11:21:52.511Z,80.93
2023-06-29T11:24:45.276Z,84.15
2023-06-29T11:28:08.519Z,86.78
2023-06-29T11:31:27.462Z,83.47
2023-06-29T11:37:49.042Z,87.85
2023-06-29T11:41:30.441Z,88.90
2023-06-29T11:47:53.933Z,87.50
2023-06-29T11:51:09.424Z,92.78
2023-06-29T11:57:36.025Z,92.43
2023-06-29T12:04:25.261Z,87.90
2023-06-29T12:07:19.864Z,88.72
2023-06-29T12:10:14.545Z,88.22
2023-06-29T12:13:17.513Z,93.50
2023-06-29T12:18:59.647Z,86.20
2023-06-29T12:21:40.610Z,84.68
2023-06-29T12:25:12.150Z,86.78
2023-06-29T12:27:52.599Z,84.15
2023-06-29T12:30:47.118Z,81.82
2023-06-29T12:33:17.740Z,79.28
2023-06-29T12:36:25.498Z,84.72
2023-06-29T12:39:28.567Z,81.07
2023-06-29T12:42:06.472Z,81.57
2023-06-29T12:44:42.213Z,78.95
2023-06-29T12:47:10.364Z,83.03
2023-06-29T12:49:44.806Z,86.28
2023-06-29T12:52:13.078Z,83.13
2023-06-29T12:54:46.326Z,84.15
2023-06-29T12:57:16.115Z,86.72
2023-06-29T12:59:44.275Z,88.63
2023-06-29T13:02:33.251Z,87.45
2023-06-29T13:08:27.256Z,79.60
2023-06-29T13:11:06.088Z,89.45
2023-06-29T13:13:46.522Z,92.90
2023-06-29T13:16:35.493Z,97.68
2023-06-29T13:19:18.005Z,87.45
2023-06-29T13:21:59.605Z,85.60
2023-06-29T13:24:28.331Z,87.03
2023-06-29T13:26:59.267Z,91.57
2023-06-29T13:29:32.835Z,86.55
2023-06-29T13:32:07.115Z,86.05
2023-06-29T13:34:39.469Z,82.90
2023-06-29T13:37:10.633Z,79.32
2023-06-29T13:39:46.883Z,79.85
2023-06-29T13:42:21.043Z,75.97
2023-06-29T13:45:29.790Z,75.95
2023-06-29T13:48:10.716Z,78.95
2023-06-29T13:50:54.311Z,72.85
2023-06-29T13:56:38.963Z,73.55
2023-06-29T14:02:30.139Z,72.55
2023-06-29T14:07:54.056Z,71.50
2023-06-29T14:10:33.134Z,74.93
2023-06-29T14:13:13.520Z,72.53
2023-06-29T14:16:15.691Z,68.57
2023-06-29T14:19:29.659Z,68.93
2023-06-29T14:21:58.200Z,67.13
2023-06-29T14:24:36.818Z,70.22
2023-06-29T14:27:19.602Z,75.47
2023-06-29T14:33:10.288Z,70.28
2023-06-29T14:42:14.145Z,72.53
2023-06-29T14:45:33.593Z,71.57
2023-06-29T14:48:23.749Z,68.70
2023-06-29T14:54:27.606Z,68.70
2023-06-29T15:00:38.597Z,68.80
2023-06-29T15:03:58.032Z,66.15
2023-06-29T15:06:41.286Z,61.92
2023-06-29T15:09:27.758Z,64.20
2023-06-29T15:12:17.961Z,59.85
2023-06-29T15:21:52.635Z,58.10
2023-06-29T15:24:44.658Z,59.40
2023-06-29T15:27:37.010Z,57.92
2023-06-29T15:30:23.191Z,57.97
2023-06-29T15:32:57.682Z,55.35
2023-06-29T15:35:43.307Z,54.70
2023-06-29T15:38:42.538Z,55.15
2023-06-29T15:41:25.207Z,55.38
2023-06-29T15:44:08.684Z,54.67
2023-06-29T15:46:55.121Z,54.03
2023-06-29T15:49:32.766Z,54.30
2023-06-29T15:53:25.192Z,51.08
2023-06-29T15:55:56.544Z,47.83
2023-06-29T15:58:31.201Z,46.72
2023-06-29T16:01:01.907Z,47.42
2023-06-29T16:03:30.429Z,47.08
2023-06-29T16:06:04.085Z,47.05
2023-06-29T16:09:09.638Z,44.10
2023-06-29T16:12:05.452Z,46.38
2023-06-29T16:21:40.631Z,39.67
2023-06-29T16:24:14.039Z,39.20
2023-06-29T16:27:11.128Z,38.58
2023-06-29T16:29:46.463Z,39.53
2023-06-29T16:32:25.216Z,38.10
2023-06-29T16:35:23.670Z,37.78
2023-06-29T16:38:34.746Z,33.83
2023-06-29T16:41:15.071Z,36.28
2023-06-29T16:44:00.855Z,36.42
2023-06-29T16:47:32.804Z,37.83
2023-06-29T16:50:06.462Z,37.05
2023-06-29T16:56:44.632Z,37.10
2023-06-29T16:59:39.929Z,36.50
2023-06-29T17:02:43.229Z,37.75
2023-06-29T17:06:17.287Z,38.05
2023-06-29T17:09:27.440Z,39.95
2023-06-29T17:15:30.486Z,38.40
2023-06-29T17:38:16.122Z,33.15
2023-06-29T17:41:58.562Z,33.50
2023-06-29T17:44:58.137Z,34.15
2023-06-29T17:48:14.004Z,34.90
2023-06-29T18:03:01.439Z,38.28
2023-06-29T18:13:26.501Z,41.30
2023-06-29T18:27:30.074Z,45.75
2023-06-29T19:33:42.915Z,33.72
2023-06-29T19:41:06.084Z,37.05
2023-06-29T19:44:23.369Z,36.70
2023-06-29T19:47:33.345Z,39.47
2023-06-29T19:50:51.216Z,37.83
2023-06-29T19:54:19.680Z,37.35
2023-06-29T20:00:36.534Z,44.50
2023-06-29T20:07:31.694Z,42.47
2023-06-29T20:15:09.011Z,42.70
2023-06-29T20:33:03.676Z,46.00
2023-06-29T20:39:05.819Z,44.55
2023-06-29T20:42:22.376Z,45.63
2023-06-29T20:45:33.453Z,46.60
2023-06-29T20:49:04.472Z,47.72
2023-06-29T20:51:40.949Z,47.45
2023-06-29T20:55:03.820Z,48.10
2023-06-29T20:57:47.664Z,47.28
2023-06-29T21:00:58.393Z,44.72
2023-06-29T21:07:14.243Z,44.53
2023-06-29T21:10:20.256Z,44.55
2023-06-29T21:13:19.487Z,43.88
2023-06-29T21:16:46.298Z,43.75
2023-06-29T21:26:43.022Z,42.67
2023-06-29T21:32:42.090Z,43.55
2023-06-29T21:35:48.157Z,44.25
2023-06-29T21:38:50.363Z,43.78
2023-06-29T21:41:36.249Z,45.15
2023-06-29T21:44:55.014Z,43.63
2023-06-29T21:47:54.878Z,42.45
2023-06-29T21:53:35.406Z,41.53
2023-06-29T21:56:35.650Z,41.67
2023-06-29T21:59:43.736Z,40.55
2023-06-29T22:05:26.830Z,44.35
2023-06-29T22:17:50.736Z,46.25
2023-06-29T22:20:41.867Z,45.28
2023-06-29T22:23:14.447Z,45.20
2023-06-29T22:26:25.446Z,47.72
2023-06-29T22:29:27.987Z,45.65
2023-06-29T22:32:21.374Z,47.00
2023-06-29T22:35:11.441Z,48.25
2023-06-29T22:38:09.764Z,46.85
2023-06-29T22:41:02.398Z,46.85
2023-06-29T22:46:54.788Z,45.25
2023-06-29T22:49:32.743Z,43.67
2023-06-29T22:52:03.239Z,45.78
2023-06-29T22:54:42.712Z,46.25
2023-06-29T22:57:18.390Z,48.20
2023-06-29T22:59:46.843Z,45.58
2023-06-29T23:02:15.297Z,45.22
2023-06-29T23:04:50.609Z,46.25
2023-06-29T23:07:19.395Z,45.70
2023-06-29T23:09:49.581Z,45.85
2023-06-29T23:12:22.567Z,43.92
2023-06-29T23:14:55.177Z,43.85
2023-06-29T23:17:28.126Z,46.45
2023-06-29T23:19:58.976Z,44.80
2023-06-29T23:22:30.279Z,45.25
2023-06-29T23:25:01.954Z,46.38
2023-06-29T23:27:30.490Z,45.22
2023-06-29T23:29:58.787Z,44.92
2023-06-29T23:32:27.631Z,45.50
2023-06-29T23:34:55.932Z,46.78
2023-06-29T23:37:26.166Z,47.78
2023-06-29T23:39:55.069Z,49.25
2023-06-29T23:42:24.867Z,45.50
2023-06-29T23:44:53.516Z,46.70
2023-06-29T23:47:21.939Z,46.78
2023-06-29T23:49:50.279Z,46.47
2023-06-29T23:52:18.777Z,47.78
2023-06-29T23:54:47.313Z,47.33
2023-06-29T23:57:16.463Z,46.65
2023-06-29T23:59:46.399Z,45.25
